Time;durP1;ratioP1;P1;durP2;ratioP2;P2;SDS_P1;SDS_P2;PMS_P1;PMS_P2;Temp;Humidity;BMP_temperature;BMP_pressure;BME280_temperature;BME280_humidity;BME280_pressure;Samples;Min_cycle;Max_cycle;Signal;HPM_P1;HPM_P2
2022/07/06 00:02:25;;;;;;;10.15;5.92;;;;;;;21.94;64.43;100018.84;1475716;87;21463;-87
2022/07/06 00:04:53;;;;;;;9.48;5.97;;;;;;;21.90;64.67;100023.06;1481993;87;21589;-86
2022/07/06 00:07:24;;;;;;;6.50;5.55;;;;;;;21.84;65.19;100027.51;1490543;86;21321;-87
2022/07/06 00:09:51;;;;;;;9.43;6.08;;;;;;;21.75;65.72;100033.44;1480961;86;21382;-87
2022/07/06 00:12:18;;;;;;;7.65;6.00;;;;;;;21.65;66.17;100034.55;1444706;87;22381;-87
2022/07/06 00:14:46;;;;;;;7.45;5.87;;;;;;;21.54;66.57;100038.30;1455604;87;22254;-87
2022/07/06 00:17:15;;;;;;;9.55;5.80;;;;;;;21.42;67.06;100041.48;1488389;86;22363;-87
2022/07/06 00:19:42;;;;;;;7.25;5.87;;;;;;;21.33;67.88;100046.86;1466443;86;22423;-87
2022/07/06 00:22:10;;;;;;;8.00;5.90;;;;;;;21.27;67.81;100045.90;1491045;86;21556;-86
2022/07/06 00:24:37;;;;;;;10.88;5.87;;;;;;;21.23;68.58;100038.49;1443270;87;23738;-88
2022/07/06 00:27:04;;;;;;;10.68;5.17;;;;;;;21.16;68.92;100047.48;1482144;87;21551;-88
2022/07/06 00:29:32;;;;;;;8.75;6.10;;;;;;;21.12;68.99;100048.98;1481833;87;21456;-87
2022/07/06 00:31:59;;;;;;;9.95;6.30;;;;;;;21.10;69.33;100056.98;1442087;87;21329;-88
2022/07/06 00:34:26;;;;;;;8.88;5.95;;;;;;;21.09;69.12;100052.13;1495213;86;21455;-88
2022/07/06 00:36:53;;;;;;;8.10;6.33;;;;;;;21.08;69.69;100049.12;1471967;86;21500;-87
2022/07/06 00:39:21;;;;;;;8.03;5.50;;;;;;;21.09;69.65;100043.22;1495713;86;21535;-87
2022/07/06 00:41:48;;;;;;;11.28;7.03;;;;;;;21.10;69.53;100048.38;1471133;87;21463;-87
2022/07/06 00:44:15;;;;;;;7.37;5.47;;;;;;;21.14;69.46;100050.91;1446155;87;21590;-87
2022/07/06 00:46:42;;;;;;;8.48;5.65;;;;;;;21.16;69.61;100048.00;1470641;88;22558;-87
2022/07/06 00:50:13;;;;;;;6.28;4.87;;;;;;;21.17;69.50;100053.67;1445714;88;21493;-86
2022/07/06 00:51:39;;;;;;;7.12;5.22;;;;;;;21.18;69.44;100056.16;1446217;88;22343;-86
2022/07/06 00:54:06;;;;;;;6.37;4.92;;;;;;;21.19;69.06;100063.16;1467887;87;21477;-86
2022/07/06 00:56:35;;;;;;;7.25;4.33;;;;;;;21.22;68.92;100061.08;1468650;87;21375;-86
2022/07/06 00:59:03;;;;;;;9.63;4.78;;;;;;;21.23;68.82;100062.72;1432357;88;22291;-86
2022/07/06 01:01:30;;;;;;;5.97;4.28;;;;;;;21.28;68.60;100073.63;1475309;87;21478;-87
2022/07/06 01:03:57;;;;;;;6.83;4.35;;;;;;;21.30;68.35;100069.66;1479850;87;21548;-87
2022/07/06 01:06:26;;;;;;;7.22;4.37;;;;;;;21.31;68.24;100074.52;1484976;87;22418;-88
2022/07/06 01:08:54;;;;;;;6.22;4.72;;;;;;;21.30;68.23;100075.58;1467075;87;21514;-88
2022/07/06 01:11:22;;;;;;;7.47;4.33;;;;;;;21.26;68.39;100074.37;1458185;88;22400;-87
2022/07/06 01:13:50;;;;;;;7.03;4.03;;;;;;;21.24;68.19;100075.95;1480586;87;21850;-88
2022/07/06 01:16:18;;;;;;;5.08;3.62;;;;;;;21.25;68.61;100083.50;1436478;88;21596;-89
2022/07/06 01:18:45;;;;;;;6.58;4.22;;;;;;;21.17;68.90;100077.36;1450650;88;21412;-88
2022/07/06 01:21:14;;;;;;;5.08;4.58;;;;;;;21.12;68.69;100083.15;1487733;87;21404;-88
2022/07/06 01:23:47;;;;;;;6.42;4.53;;;;;;;21.12;68.74;100087.19;1466974;87;22408;-88
2022/07/06 01:26:21;;;;;;;7.80;4.20;;;;;;;21.17;68.62;100085.97;1479315;87;21551;-88
2022/07/06 01:28:51;;;;;;;6.78;3.70;;;;;;;21.18;68.84;100090.31;1480486;87;21382;-88
2022/07/06 01:31:22;;;;;;;5.53;3.77;;;;;;;21.19;68.78;100087.39;1479340;87;21440;-88
2022/07/06 01:33:53;;;;;;;7.92;4.80;;;;;;;21.15;68.91;100083.52;1485432;87;21559;-88
2022/07/06 01:36:20;;;;;;;11.90;4.45;;;;;;;21.08;69.08;100085.45;1459547;87;22269;-87
2022/07/06 01:38:54;;;;;;;4.35;3.95;;;;;;;21.08;69.20;100088.14;1473204;87;21367;-87
2022/07/06 01:41:21;;;;;;;8.18;5.05;;;;;;;21.10;69.20;100086.05;1489861;86;21375;-87
2022/07/06 01:43:49;;;;;;;7.12;4.45;;;;;;;21.07;69.33;100085.16;1454892;87;21545;-88
2022/07/06 01:46:16;;;;;;;8.80;4.58;;;;;;;21.05;69.57;100077.83;1462140;87;21404;-88
2022/07/06 01:48:44;;;;;;;6.62;4.17;;;;;;;21.05;69.36;100083.20;1485628;87;21463;-87
2022/07/06 01:51:11;;;;;;;5.60;3.87;;;;;;;21.06;69.21;100081.33;1472621;87;22336;-87
2022/07/06 01:53:39;;;;;;;5.97;4.62;;;;;;;21.08;69.28;100077.37;1459733;88;21397;-87
2022/07/06 01:56:07;;;;;;;9.60;4.20;;;;;;;21.11;69.12;100077.45;1478569;87;21383;-88
2022/07/06 01:58:35;;;;;;;5.92;4.00;;;;;;;21.11;69.24;100078.80;1477008;87;21397;-88
2022/07/06 02:01:12;;;;;;;7.28;4.30;;;;;;;21.08;69.60;100076.03;1460717;87;22884;-87
2022/07/06 02:03:39;;;;;;;4.90;3.37;;;;;;;21.09;69.76;100082.23;1485237;87;21545;-87
2022/07/06 02:06:07;;;;;;;8.25;3.55;;;;;;;21.03;71.92;100082.62;1461233;86;21455;-87
2022/07/06 02:08:36;;;;;;;31.93;5.05;;;;;;;21.05;70.10;100079.17;1482545;87;21338;-85
2022/07/06 02:11:06;;;;;;;7.28;3.67;;;;;;;21.02;70.31;100078.28;1488024;87;21522;-85
2022/07/06 02:13:34;;;;;;;5.55;3.75;;;;;;;21.00;70.68;100083.05;1477648;87;21529;-86
2022/07/06 02:16:03;;;;;;;4.40;3.60;;;;;;;21.03;70.49;100085.33;1448115;87;21330;-85
2022/07/06 02:18:30;;;;;;;3.90;3.45;;;;;;;21.03;70.53;100091.20;1483740;87;21647;-88
2022/07/06 02:20:57;;;;;;;4.20;3.47;;;;;;;21.03;70.68;100088.02;1459892;89;21507;-87
2022/07/06 02:23:25;;;;;;;5.12;3.60;;;;;;;21.00;70.42;100085.74;1462705;87;21493;-87
2022/07/06 02:25:53;;;;;;;4.08;3.60;;;;;;;21.00;70.77;100088.43;1486334;86;21389;-86
2022/07/06 02:28:20;;;;;;;4.85;3.72;;;;;;;21.00;71.04;100093.81;1463639;87;21501;-86
2022/07/06 02:30:47;;;;;;;4.83;3.33;;;;;;;20.99;71.01;100091.36;1457599;88;21626;-86
2022/07/06 02:33:15;;;;;;;6.70;3.42;;;;;;;20.95;71.17;100089.13;1483172;87;22349;-88
2022/07/06 02:35:42;;;;;;;7.47;3.50;;;;;;;20.93;71.43;100088.52;1447262;87;21895;-89
2022/07/06 02:38:10;;;;;;;5.75;3.60;;;;;;;20.91;71.29;100087.09;1454814;87;21966;-88
2022/07/06 02:40:38;;;;;;;3.95;3.05;;;;;;;20.85;71.95;100083.95;1480492;88;21352;-87
2022/07/06 02:43:05;;;;;;;6.15;2.98;;;;;;;20.78;71.96;100089.94;1478762;87;21397;-87
2022/07/06 02:45:33;;;;;;;4.22;3.80;;;;;;;20.76;71.74;100089.33;1471581;88;21537;-86
2022/07/06 02:48:00;;;;;;;4.85;3.02;;;;;;;20.72;71.90;100089.78;1472468;86;22630;-86
2022/07/06 02:50:27;;;;;;;5.00;2.98;;;;;;;20.71;72.43;100087.30;1471855;86;21389;-88
2022/07/06 02:52:55;;;;;;;5.10;3.58;;;;;;;20.69;72.66;100102.85;1464066;87;21538;-87
2022/07/06 02:55:22;;;;;;;7.00;3.65;;;;;;;20.67;72.54;100100.38;1470908;87;21463;-86
2022/07/06 02:57:49;;;;;;;11.48;2.95;;;;;;;20.67;72.29;100103.59;1488122;86;21338;-86
2022/07/06 03:00:17;;;;;;;4.33;3.22;;;;;;;20.66;72.74;100101.42;1479332;87;21411;-86
2022/07/06 03:02:44;;;;;;;6.83;3.42;;;;;;;20.65;72.84;100109.17;1465921;87;21968;-86
2022/07/06 03:05:11;;;;;;;5.03;2.80;;;;;;;20.63;72.89;100112.63;1460546;87;21507;-87
2022/07/06 03:07:39;;;;;;;3.42;3.12;;;;;;;20.66;72.86;100113.52;1488977;86;22291;-87
2022/07/06 03:10:07;;;;;;;3.58;3.20;;;;;;;20.65;73.73;100115.89;1464113;86;21455;-86
2022/07/06 03:12:34;;;;;;;4.20;3.15;;;;;;;20.65;73.02;100112.39;1473048;87;21492;-87
2022/07/06 03:15:01;;;;;;;4.03;3.05;;;;;;;20.63;72.87;100115.31;1484491;86;21353;-86
2022/07/06 03:17:28;;;;;;;13.00;4.62;;;;;;;20.65;73.03;100116.42;1459337;87;21419;-87
2022/07/06 03:19:55;;;;;;;5.08;3.45;;;;;;;20.69;73.10;100119.80;1469394;86;21433;-86
2022/07/06 03:22:23;;;;;;;3.95;2.90;;;;;;;20.73;73.04;100118.30;1477669;86;23590;-86
2022/07/06 03:24:50;;;;;;;3.83;3.10;;;;;;;20.72;73.80;100124.73;1488294;86;21471;-86
2022/07/06 03:27:17;;;;;;;6.30;3.12;;;;;;;20.75;73.37;100126.69;1450249;87;21484;-86
2022/07/06 03:29:44;;;;;;;12.40;4.28;;;;;;;20.69;74.08;100119.80;1489096;86;21412;-86
2022/07/06 03:32:12;;;;;;;10.90;3.87;;;;;;;20.70;74.05;100124.13;1478887;86;22380;-86
2022/07/06 03:34:39;;;;;;;4.42;3.50;;;;;;;20.75;73.80;100128.85;1476512;86;21449;-86
2022/07/06 03:37:06;;;;;;;5.22;3.00;;;;;;;20.77;74.44;100128.61;1476873;86;21397;-86
2022/07/06 03:39:33;;;;;;;11.43;4.10;;;;;;;20.78;74.71;100123.55;1467360;86;21360;-86
2022/07/06 03:42:00;;;;;;;7.83;3.02;;;;;;;20.82;74.82;100134.98;1475946;86;21397;-86
2022/07/06 03:44:27;;;;;;;6.60;3.40;;;;;;;20.87;74.74;100132.98;1472809;87;21367;-87
2022/07/06 03:46:55;;;;;;;7.90;3.40;;;;;;;20.93;74.23;100126.70;1472767;87;22394;-87
2022/07/06 03:49:26;;;;;;;8.40;3.30;;;;;;;20.99;74.29;100122.30;1460639;87;21397;-87
2022/07/06 03:51:51;;;;;;;4.80;3.62;;;;;;;20.99;74.41;100124.98;1485296;86;21375;-87
2022/07/06 03:54:18;;;;;;;6.97;3.58;;;;;;;21.00;74.25;100118.02;1461973;87;21555;-87
2022/07/06 03:56:46;;;;;;;5.53;3.37;;;;;;;21.01;74.09;100122.37;1460288;87;21434;-87
2022/07/06 03:59:14;;;;;;;7.10;3.92;;;;;;;21.06;73.74;100122.54;1469901;87;21485;-87
2022/07/06 04:01:41;;;;;;;8.18;3.30;;;;;;;21.07;73.53;100131.42;1456868;87;21623;-87
2022/07/06 04:04:08;;;;;;;5.22;3.47;;;;;;;21.04;73.92;100134.03;1494655;86;21367;-87
2022/07/06 04:06:35;;;;;;;6.83;3.55;;;;;;;21.11;73.99;100142.03;1494971;87;21418;-88
2022/07/06 04:09:03;;;;;;;6.60;3.72;;;;;;;21.16;73.59;100128.20;1462329;86;21419;-88
2022/07/06 04:11:30;;;;;;;6.12;3.58;;;;;;;21.18;73.44;100135.53;1495967;86;22373;-88
2022/07/06 04:13:58;;;;;;;6.17;3.30;;;;;;;21.15;73.68;100147.28;1461794;87;21330;-88
2022/07/06 04:16:25;;;;;;;5.70;3.33;;;;;;;21.11;73.51;100152.27;1438221;87;21323;-86
2022/07/06 04:18:52;;;;;;;5.12;3.50;;;;;;;21.09;73.85;100159.76;1497184;86;21367;-87
2022/07/06 04:21:19;;;;;;;4.17;3.37;;;;;;;21.10;73.86;100154.66;1453650;87;22417;-87
2022/07/06 04:23:46;;;;;;;7.37;3.77;;;;;;;21.10;73.75;100164.08;1446099;87;21397;-87
2022/07/06 04:26:13;;;;;;;12.20;3.95;;;;;;;21.07;74.13;100165.87;1460560;87;21546;-87
2022/07/06 04:28:40;;;;;;;22.37;6.30;;;;;;;21.08;73.82;100161.31;1466827;87;21489;-87
2022/07/06 04:31:07;;;;;;;10.72;3.83;;;;;;;21.11;74.00;100158.98;1472072;87;21404;-88
2022/07/06 04:33:35;;;;;;;12.43;4.70;;;;;;;21.13;74.00;100162.29;1446717;87;21464;-87
2022/07/06 04:36:02;;;;;;;4.70;3.47;;;;;;;21.14;73.92;100159.89;1495217;86;21388;-87
2022/07/06 04:38:29;;;;;;;7.40;3.65;;;;;;;21.07;74.37;100169.91;1485259;87;21308;-87
2022/07/06 04:40:57;;;;;;;7.35;3.40;;;;;;;21.02;73.95;100171.09;1469137;87;21478;-87
2022/07/06 04:43:24;;;;;;;12.63;4.23;;;;;;;21.01;73.98;100167.30;1468606;87;22933;-87
2022/07/06 04:45:51;;;;;;;10.15;3.67;;;;;;;21.02;73.83;100174.31;1491678;86;21382;-87
2022/07/06 04:48:18;;;;;;;12.35;3.95;;;;;;;21.02;74.69;100175.13;1465192;86;21536;-87
2022/07/06 04:50:45;;;;;;;6.25;3.65;;;;;;;21.04;75.13;100174.39;1481198;86;21331;-86
2022/07/06 04:53:13;;;;;;;4.47;3.58;;;;;;;21.07;74.59;100183.89;1485653;86;21485;-87
2022/07/06 04:55:40;;;;;;;5.53;3.60;;;;;;;21.09;74.22;100181.28;1464829;87;21374;-87
2022/07/06 04:58:07;;;;;;;5.80;3.67;;;;;;;21.10;74.57;100188.30;1495790;86;22239;-87
2022/07/06 05:00:34;;;;;;;9.10;5.42;;;;;;;21.12;74.92;100186.22;1479129;86;21540;-87
2022/07/06 05:03:01;;;;;;;7.28;3.75;;;;;;;21.15;74.39;100189.80;1470124;87;21434;-86
2022/07/06 05:05:28;;;;;;;5.30;3.05;;;;;;;21.15;74.74;100196.53;1491455;86;21515;-86
2022/07/06 05:07:55;;;;;;;6.70;3.62;;;;;;;21.14;74.77;100196.73;1488469;86;22136;-86
2022/07/06 05:10:23;;;;;;;6.03;3.17;;;;;;;21.15;74.95;100201.91;1478455;86;21375;-87
2022/07/06 05:12:49;;;;;;;3.95;2.92;;;;;;;21.11;74.90;100206.08;1483408;86;21404;-86
2022/07/06 05:15:17;;;;;;;6.28;3.00;;;;;;;21.08;75.59;100203.83;1466190;86;21396;-87
2022/07/06 05:17:44;;;;;;;4.33;2.47;;;;;;;21.03;75.75;100210.92;1464156;87;21499;-86
2022/07/06 05:20:11;;;;;;;5.83;2.58;;;;;;;21.05;75.54;100208.31;1491081;86;21426;-86
2022/07/06 05:22:38;;;;;;;5.03;2.72;;;;;;;21.07;75.67;100212.95;1499921;86;21477;-86
2022/07/06 05:25:06;;;;;;;4.20;2.95;;;;;;;21.04;74.94;100212.06;1472658;88;22350;-86
2022/07/06 05:27:33;;;;;;;5.25;2.98;;;;;;;21.06;75.50;100211.82;1492788;86;21552;-86
2022/07/06 05:30:00;;;;;;;6.83;1.95;;;;;;;21.02;74.89;100212.80;1445167;87;21308;-86
2022/07/06 05:32:27;;;;;;;7.30;2.10;;;;;;;21.04;73.91;100217.44;1495392;86;21381;-87
2022/07/06 05:34:54;;;;;;;2.67;1.50;;;;;;;21.06;74.29;100227.47;1485799;86;21463;-88
2022/07/06 05:37:21;;;;;;;2.58;1.87;;;;;;;21.02;73.01;100228.94;1476210;86;21345;-88
2022/07/06 05:39:49;;;;;;;13.00;2.45;;;;;;;20.99;72.41;100223.19;1465182;87;21419;-88
2022/07/06 05:42:17;;;;;;;8.35;1.57;;;;;;;20.97;72.09;100223.39;1457292;86;22291;-88
2022/07/06 05:44:45;;;;;;;6.55;1.77;;;;;;;20.97;71.93;100226.08;1485938;86;22379;-87
2022/07/06 05:50:13;;;;;;;1.85;0.90;;;;;;;20.98;71.43;100229.09;1495513;86;21389;-88
2022/07/06 05:52:45;;;;;;;3.33;1.10;;;;;;;20.98;70.78;100227.75;1449178;86;22291;-88
2022/07/06 05:55:13;;;;;;;5.58;1.30;;;;;;;20.98;70.92;100222.89;1506789;87;22285;-86
2022/07/06 05:57:40;;;;;;;11.33;1.75;;;;;;;21.01;69.71;100231.34;1482780;86;21331;-86
2022/07/06 06:00:08;;;;;;;4.55;1.30;;;;;;;21.07;69.72;100225.06;1464110;86;23442;-88
2022/07/06 06:02:41;;;;;;;1.92;0.80;;;;;;;21.07;69.56;100229.11;1459325;87;21471;-89
2022/07/06 06:05:10;;;;;;;1.05;0.93;;;;;;;21.13;69.57;100223.36;1487649;86;21426;-88
2022/07/06 06:07:39;;;;;;;0.90;0.83;;;;;;;21.17;69.62;100225.37;1484881;86;21389;-88
2022/07/06 06:10:10;;;;;;;1.27;0.70;;;;;;;21.14;68.52;100225.81;1472148;87;21517;-87
2022/07/06 06:12:38;;;;;;;7.90;0.88;;;;;;;21.10;68.00;100224.63;1488259;87;21480;-88
2022/07/06 06:15:07;;;;;;;22.55;2.60;;;;;;;21.08;68.18;100230.73;1480151;86;21381;-89
2022/07/06 06:17:37;;;;;;;4.30;0.90;;;;;;;20.99;67.81;100231.25;1487077;86;22445;-88
2022/07/06 06:20:08;;;;;;;1.35;0.82;;;;;;;21.02;68.04;100222.21;1493540;86;21425;-91
2022/07/06 06:22:52;;;;;;;4.53;1.05;;;;;;;20.98;67.50;100224.23;1465536;86;21462;-89
2022/07/06 06:25:35;;;;;;;2.95;0.98;;;;;;;20.99;67.64;100229.38;1484178;86;21375;-89
2022/07/06 06:28:08;;;;;;;2.00;0.68;;;;;;;20.99;67.58;100234.77;1504895;86;21529;-89
2022/07/06 06:30:37;;;;;;;10.78;1.25;;;;;;;20.93;67.51;100232.42;1499242;86;21353;-90
2022/07/06 06:33:12;;;;;;;6.33;0.65;;;;;;;20.94;67.75;100234.59;1483328;86;21389;-90
2022/07/06 06:35:49;;;;;;;3.30;1.52;;;;;;;21.05;66.98;100241.13;1494333;86;21397;-89
2022/07/06 06:38:18;;;;;;;0.60;0.60;;;;;;;21.14;68.44;100237.10;1469686;86;21360;-90
2022/07/06 06:40:46;;;;;;;3.77;0.93;;;;;;;21.25;66.76;100242.29;1503229;86;21285;-89
2022/07/06 06:43:13;;;;;;;0.90;0.75;;;;;;;21.36;66.96;100242.41;1496264;87;21360;-90
2022/07/06 06:45:40;;;;;;;0.70;0.70;;;;;;;21.42;66.34;100239.34;1487578;86;21331;-89
2022/07/06 06:48:08;;;;;;;1.02;0.75;;;;;;;21.53;66.30;100244.52;1489428;86;21382;-88
2022/07/06 06:50:35;;;;;;;3.80;0.78;;;;;;;21.45;66.00;100247.50;1497021;86;21301;-90
2022/07/06 06:53:03;;;;;;;1.87;0.60;;;;;;;21.43;66.11;100247.71;1460246;87;22454;-90
2022/07/06 06:55:30;;;;;;;1.20;0.82;;;;;;;21.31;66.54;100245.44;1470007;87;22808;-90
2022/07/06 06:57:57;;;;;;;5.47;0.88;;;;;;;21.27;66.08;100250.44;1474960;87;21300;-91
2022/07/06 07:00:24;;;;;;;0.62;0.40;;;;;;;21.26;66.15;100248.80;1479729;86;21374;-91
2022/07/06 07:02:52;;;;;;;8.78;2.12;;;;;;;21.21;66.89;100247.83;1481967;86;22343;-91
2022/07/06 07:05:19;;;;;;;2.90;2.00;;;;;;;21.26;66.68;100250.65;1465580;87;21366;-89
2022/07/06 07:07:46;;;;;;;4.12;0.90;;;;;;;21.19;66.67;100249.38;1463630;86;21492;-91
2022/07/06 07:10:13;;;;;;;3.55;0.72;;;;;;;21.21;66.47;100257.25;1473444;87;21382;-90
2022/07/06 07:12:48;;;;;;;2.87;0.85;;;;;;;21.25;66.63;100261.13;1487906;87;21539;-89
2022/07/06 07:15:16;;;;;;;4.65;0.88;;;;;;;21.29;66.49;100256.94;1484457;86;22298;-89
2022/07/06 07:17:43;;;;;;;0.50;0.50;;;;;;;21.31;66.56;100269.66;1474683;86;22586;-90
2022/07/06 07:20:11;;;;;;;2.37;0.75;;;;;;;21.37;66.25;100266.10;1464758;87;21389;-90
2022/07/06 07:22:38;;;;;;;16.00;1.60;;;;;;;21.39;66.16;100265.37;1462278;87;21448;-91
2022/07/06 07:25:07;;;;;;;5.03;1.20;;;;;;;21.31;66.36;100272.34;1488802;86;21359;-90
2022/07/06 07:27:34;;;;;;;7.45;1.12;;;;;;;21.29;66.61;100273.08;1496840;85;21492;-90
2022/07/06 07:30:03;;;;;;;0.78;0.70;;;;;;;21.23;66.05;100268.59;1462455;87;21411;-89
2022/07/06 07:32:30;;;;;;;5.08;0.90;;;;;;;21.18;65.93;100275.47;1492929;86;21558;-90
2022/07/06 07:34:57;;;;;;;1.77;1.00;;;;;;;21.07;65.86;100277.53;1486426;86;21404;-91
2022/07/06 07:37:24;;;;;;;0.88;0.88;;;;;;;21.09;65.98;100279.98;1482432;86;21449;-90
2022/07/06 07:39:51;;;;;;;5.80;0.88;;;;;;;21.07;66.08;100282.91;1442133;89;22341;-89
2022/07/06 07:42:18;;;;;;;3.90;1.02;;;;;;;20.96;65.86;100290.35;1479313;86;21381;-90
2022/07/06 07:44:45;;;;;;;1.05;0.82;;;;;;;20.93;66.21;100288.10;1475901;86;21419;-90
2022/07/06 07:47:12;;;;;;;9.63;2.27;;;;;;;20.85;66.74;100284.33;1460338;87;21529;-90
2022/07/06 07:49:42;;;;;;;12.43;0.90;;;;;;;20.81;67.47;100286.64;1492509;86;21522;-90
2022/07/06 07:52:08;;;;;;;7.37;1.10;;;;;;;20.75;67.38;100286.70;1468954;87;22401;-91
2022/07/06 07:54:36;;;;;;;2.10;0.98;;;;;;;20.77;67.90;100288.10;1463992;87;21367;-90
2022/07/06 07:57:04;;;;;;;2.95;0.80;;;;;;;20.72;68.05;100296.84;1496592;86;21352;-90
2022/07/06 07:59:31;;;;;;;5.08;0.90;;;;;;;20.75;68.13;100295.59;1484114;86;21330;-90
2022/07/06 08:01:58;;;;;;;1.50;1.00;;;;;;;20.91;68.35;100294.21;1477340;86;21405;-91
2022/07/06 08:04:25;;;;;;;3.77;1.00;;;;;;;20.96;67.18;100293.04;1466868;86;22357;-91
2022/07/06 08:06:53;;;;;;;1.00;0.90;;;;;;;21.21;66.84;100289.02;1468459;87;21381;-91
2022/07/06 08:09:21;;;;;;;2.87;0.90;;;;;;;21.37;65.64;100290.33;1492699;86;21397;-91
2022/07/06 08:11:48;;;;;;;7.60;1.22;;;;;;;21.41;64.89;100287.52;1472619;87;21367;-90
2022/07/06 08:14:16;;;;;;;8.28;1.00;;;;;;;21.52;64.55;100294.86;1477329;87;22239;-90
2022/07/06 08:16:43;;;;;;;9.58;1.15;;;;;;;21.61;63.73;100304.81;1466399;86;21360;-91
2022/07/06 08:19:14;;;;;;;1.80;1.00;;;;;;;21.54;63.77;100294.09;1449942;87;22387;-91
2022/07/06 08:21:40;;;;;;;2.70;0.80;;;;;;;21.35;64.11;100297.80;1476832;86;21375;-92
2022/07/06 08:24:08;;;;;;;8.88;1.05;;;;;;;21.30;64.33;100298.97;1478794;86;22240;-90
2022/07/06 08:26:37;;;;;;;9.30;1.42;;;;;;;21.33;64.34;100302.56;1487883;86;22370;-90
2022/07/06 08:29:04;;;;;;;5.33;1.12;;;;;;;21.37;64.67;100307.83;1480462;86;21552;-90
2022/07/06 08:31:33;;;;;;;3.37;1.20;;;;;;;21.40;65.19;100305.51;1482465;86;21330;-91
2022/07/06 08:34:02;;;;;;;4.03;1.27;;;;;;;21.40;64.74;100304.69;1479312;86;22240;-90
2022/07/06 08:36:30;;;;;;;4.80;0.95;;;;;;;21.37;65.27;100311.86;1479103;87;22396;-90
2022/07/06 08:38:57;;;;;;;5.03;1.15;;;;;;;21.32;65.45;100312.52;1491715;86;21832;-90
2022/07/06 08:41:28;;;;;;;10.68;1.30;;;;;;;21.34;65.74;100324.39;1467763;87;21507;-91
2022/07/06 08:43:55;;;;;;;3.77;1.25;;;;;;;21.35;66.11;100322.02;1493348;86;21364;-90
2022/07/06 08:46:22;;;;;;;1.10;0.80;;;;;;;21.34;66.27;100329.77;1437793;87;22284;-90
2022/07/06 08:48:50;;;;;;;0.75;0.75;;;;;;;;;;1462962;87;21338;-89
2022/07/06 08:51:17;;;;;;;3.30;0.90;;;;;;;21.67;65.84;100325.99;1496514;86;21375;-91
2022/07/06 08:53:48;;;;;;;7.65;1.12;;;;;;;21.67;65.84;100325.99;1477624;87;21405;-91
2022/07/06 08:56:15;;;;;;;;;;;;;;;21.79;65.67;100337.66;1483699;86;21426;-92
2022/07/06 08:58:42;;;;;;;22.87;2.00;;;;;;;21.92;65.38;100339.38;1479366;86;20312;-91
2022/07/06 09:01:10;;;;;;;7.42;1.20;;;;;;;21.92;63.90;100332.11;1487390;86;22305;-91
2022/07/06 09:03:43;;;;;;;2.50;0.90;;;;;;;21.92;63.90;100332.11;1487531;87;23022;-91
2022/07/06 09:06:12;;;;;;;4.37;1.05;;;;;;;22.03;63.89;100334.59;1497856;86;21324;-89
2022/07/06 09:08:40;;;;;;;1.35;0.90;;;;;;;22.30;64.21;100336.48;1482237;86;21514;-90
2022/07/06 09:11:07;;;;;;;1.72;1.15;;;;;;;22.24;63.73;100340.06;1471723;87;21448;-90
2022/07/06 09:13:35;;;;;;;4.33;1.12;;;;;;;22.42;62.90;100338.70;1474590;87;21426;-92
2022/07/06 09:16:17;;;;;;;4.15;1.55;;;;;;;22.35;62.36;100345.22;1465455;87;21360;-91
2022/07/06 09:18:45;;;;;;;8.78;1.32;;;;;;;22.36;61.91;100342.31;1482822;86;21648;-90
2022/07/06 09:21:31;;;;;;;3.98;0.90;;;;;;;22.49;62.45;100347.52;1497179;86;21522;-91
2022/07/06 09:24:04;;;;;;;8.93;1.10;;;;;;;22.63;62.58;100351.39;1481596;87;21404;-90
2022/07/06 09:26:31;;;;;;;8.03;1.15;;;;;;;22.65;60.73;100350.65;1485289;86;21521;-91
2022/07/06 09:29:02;;;;;;;3.20;0.93;;;;;;;22.68;60.19;100350.19;1488349;86;21417;-91
2022/07/06 09:31:29;;;;;;;8.28;1.22;;;;;;;22.66;60.33;100350.94;1482122;86;21404;-90
2022/07/06 09:34:05;;;;;;;12.10;2.27;;;;;;;22.68;60.71;100351.53;1468213;87;22291;-91
2022/07/06 09:36:45;;;;;;;1.55;1.30;;;;;;;22.44;60.00;100360.88;1487639;86;21610;-90
2022/07/06 09:39:28;;;;;;;3.42;1.20;;;;;;;22.60;60.51;100357.25;1467986;86;21337;-91
2022/07/06 09:41:58;;;;;;;3.60;1.12;;;;;;;22.61;59.84;100361.58;1486788;86;21359;-89
2022/07/06 09:44:30;;;;;;;8.60;1.62;;;;;;;22.69;59.42;100349.94;1489898;86;22439;-90
2022/07/06 09:47:04;;;;;;;3.27;1.07;;;;;;;22.85;59.78;100357.92;1471523;87;22393;-90
2022/07/06 09:49:32;;;;;;;3.75;0.95;;;;;;;23.05;58.53;100362.23;1483862;87;21382;-91
2022/07/06 09:52:03;;;;;;;3.67;1.45;;;;;;;23.00;56.67;100363.45;1479182;86;22461;-89
2022/07/06 09:54:30;;;;;;;1.00;0.82;;;;;;;23.00;55.47;100363.45;1477418;87;21552;-89
2022/07/06 09:56:58;;;;;;;20.75;1.67;;;;;;;23.15;55.23;100362.48;1473948;87;21382;-89
2022/07/06 09:59:28;;;;;;;8.43;0.93;;;;;;;23.31;54.88;100365.86;1474941;87;21455;-88
2022/07/06 10:02:03;;;;;;;4.22;0.90;;;;;;;23.41;54.51;100362.03;1485077;86;21373;-88
2022/07/06 10:04:31;;;;;;;14.35;1.40;;;;;;;23.54;54.36;100370.98;1484107;87;21403;-89
2022/07/06 10:07:00;;;;;;;5.42;0.80;;;;;;;23.63;53.82;100364.17;1477816;87;21597;-88
2022/07/06 10:09:29;;;;;;;6.25;1.12;;;;;;;23.68;52.91;100372.40;1490310;86;21367;-88
2022/07/06 10:12:00;;;;;;;1.70;0.90;;;;;;;23.83;53.25;100368.71;1489277;87;21301;-88
2022/07/06 10:14:30;;;;;;;2.92;0.82;;;;;;;23.69;52.71;100375.92;1483035;86;21617;-89
2022/07/06 10:17:00;;;;;;;0.80;0.80;;;;;;;23.58;53.27;100368.09;1483425;86;22526;-88
2022/07/06 10:19:29;;;;;;;5.20;1.40;;;;;;;23.50;53.28;100371.14;1496744;86;21337;-87
2022/07/06 10:22:02;;;;;;;16.93;1.13;;;;;;;23.47;52.64;100365.68;1489659;86;21500;-87
2022/07/06 10:24:33;;;;;;;5.67;1.27;;;;;;;23.57;52.88;100379.44;1487973;86;22189;-88
2022/07/06 10:27:00;;;;;;;2.50;1.00;;;;;;;23.49;52.78;100373.56;1470986;87;21477;-86
2022/07/06 10:29:28;;;;;;;4.50;0.90;;;;;;;23.32;52.95;100372.89;1492390;86;21367;-89
2022/07/06 10:31:55;;;;;;;5.30;0.95;;;;;;;23.22;52.65;100381.26;1475699;87;21388;-87
2022/07/06 10:34:23;;;;;;;4.78;1.02;;;;;;;23.22;52.75;100378.06;1489995;87;21330;-85
2022/07/06 10:36:54;;;;;;;6.70;1.50;;;;;;;23.09;52.82;100376.91;1482729;88;21271;-88
2022/07/06 10:42:58;;;;;;;5.00;0.78;;;;;;;23.28;53.14;100376.31;1467037;86;21522;-87
2022/07/06 10:45:34;;;;;;;4.35;0.93;;;;;;;23.34;52.22;100392.39;1472450;89;21450;-87
2022/07/06 10:48:17;;;;;;;7.75;1.07;;;;;;;23.61;51.91;100379.25;1495268;86;21481;-86
2022/07/06 10:50:50;;;;;;;1.98;0.88;;;;;;;23.61;51.49;100373.03;1491668;86;21461;-87
2022/07/06 10:53:37;;;;;;;8.58;1.27;;;;;;;23.77;51.59;100369.66;1436466;89;21361;-86
2022/07/06 10:56:09;;;;;;;2.15;1.12;;;;;;;23.84;51.28;100370.34;1491194;86;21471;-87
2022/07/06 10:58:50;;;;;;;4.22;1.52;;;;;;;23.95;51.05;100369.23;1480594;86;21591;-88
2022/07/06 11:01:20;;;;;;;15.83;2.08;;;;;;;24.18;49.83;100367.83;1485562;86;21294;-87
2022/07/06 11:04:03;;;;;;;1.37;0.85;;;;;;;24.66;50.06;100372.59;1463441;88;21385;-89
2022/07/06 11:06:33;;;;;;;1.60;0.70;;;;;;;24.81;47.74;100373.41;1484663;86;21323;-86
2022/07/06 11:09:10;;;;;;;1.40;0.80;;;;;;;24.74;47.41;100370.83;1466783;87;21440;-86
2022/07/06 11:11:44;;;;;;;1.00;0.75;;;;;;;25.27;48.04;100370.17;1486309;86;21315;-87
2022/07/06 11:14:18;;;;;;;11.60;1.57;;;;;;;25.87;48.00;100357.27;1494039;86;21433;-86
2022/07/06 11:16:53;;;;;;;8.58;0.80;;;;;;;26.05;45.23;100356.96;1485608;87;22837;-86
2022/07/06 11:19:23;;;;;;;2.30;0.90;;;;;;;26.26;44.82;100351.24;1470120;87;21433;-85
2022/07/06 11:21:59;;;;;;;;;;;;;;;26.41;44.80;100354.66;1484813;86;21381;-86
2022/07/06 11:24:30;;;;;;;2.37;0.88;;;;;;;26.40;43.03;100363.89;1488976;87;20386;-86
2022/07/06 11:27:08;;;;;;;1.00;0.50;;;;;;;26.65;42.73;100368.00;1488751;87;21410;-86
2022/07/06 11:29:38;;;;;;;2.25;0.60;;;;;;;26.66;43.21;100351.98;1488661;87;22349;-86
2022/07/06 11:32:13;;;;;;;3.15;0.93;;;;;;;26.98;44.09;100355.55;1478799;87;21448;-86
2022/07/06 11:34:43;;;;;;;2.70;0.62;;;;;;;26.97;43.25;100360.70;1460154;87;21345;-86
2022/07/06 11:37:13;;;;;;;11.65;1.00;;;;;;;26.58;43.02;100357.87;1490038;87;21368;-86
2022/07/06 11:39:43;;;;;;;1.35;0.88;;;;;;;26.41;43.23;100354.66;1458463;87;21641;-86